createdAt,value
2022-12-16T00:01:29.024Z,100211.84
2022-12-16T00:03:57.782Z,100207.91
2022-12-16T00:06:26.794Z,100211.59
2022-12-16T00:08:53.660Z,100215.47
2022-12-16T00:11:21.678Z,100210.69
2022-12-16T00:13:48.888Z,100200.53
2022-12-16T00:16:17.653Z,100204.94
2022-12-16T00:18:45.037Z,100209.09
2022-12-16T00:21:12.464Z,100209.09
2022-12-16T00:23:41.845Z,100210.69
2022-12-16T00:26:09.186Z,100214.31
2022-12-16T00:28:36.171Z,100209.84
2022-12-16T00:31:03.294Z,100204.81
2022-12-16T00:33:30.714Z,100217.72
2022-12-16T00:35:57.871Z,100209.84
2022-12-16T00:38:26.321Z,100213.31
2022-12-16T00:40:53.102Z,100212.25
2022-12-16T00:43:20.310Z,100212.44
2022-12-16T00:45:48.022Z,100215.22
2022-12-16T00:48:15.444Z,100216.78
2022-12-16T00:50:48.968Z,100221.59
2022-12-16T00:53:15.719Z,100217.66
2022-12-16T00:55:43.315Z,100218.66
2022-12-16T00:58:10.577Z,100218.09
2022-12-16T01:00:37.335Z,100223.88
2022-12-16T01:03:04.971Z,100225.34
2022-12-16T01:05:31.691Z,100216.03
2022-12-16T01:07:58.360Z,100214.84
2022-12-16T01:10:25.835Z,100217.78
2022-12-16T01:12:52.626Z,100224.97
2022-12-16T01:15:19.793Z,100220.88
2022-12-16T01:17:46.871Z,100218.53
2022-12-16T01:20:14.281Z,100222.00
2022-12-16T01:22:41.277Z,100223.00
2022-12-16T01:25:10.167Z,100211.31
2022-12-16T01:27:36.815Z,100225.22
2022-12-16T01:30:03.965Z,100218.06
2022-12-16T01:32:30.609Z,100222.13
2022-12-16T01:34:57.381Z,100233.66
2022-12-16T01:37:24.299Z,100232.09
2022-12-16T01:39:51.087Z,100235.03
2022-12-16T01:42:21.850Z,100233.66
2022-12-16T01:44:52.286Z,100236.63
2022-12-16T01:47:33.257Z,100244.97
2022-12-16T01:50:07.364Z,100237.44
2022-12-16T01:52:40.258Z,100234.34
2022-12-16T01:55:16.386Z,100239.50
2022-12-16T01:57:48.056Z,100246.22
2022-12-16T02:00:15.010Z,100247.97
2022-12-16T02:02:45.491Z,100246.16
2022-12-16T02:05:21.101Z,100247.03
2022-12-16T02:07:56.197Z,100254.50
2022-12-16T02:10:34.025Z,100250.31
2022-12-16T02:13:25.449Z,100245.84
2022-12-16T02:16:18.180Z,100259.19
2022-12-16T02:19:23.354Z,100249.56
2022-12-16T02:22:05.515Z,100246.84
2022-12-16T02:24:44.206Z,100258.69
2022-12-16T02:27:47.972Z,100266.28
2022-12-16T02:30:34.380Z,100258.09
2022-12-16T02:33:13.242Z,100254.34
2022-12-16T02:35:41.770Z,100254.66
2022-12-16T02:38:26.618Z,100266.22
2022-12-16T02:41:02.842Z,100256.59
2022-12-16T02:44:04.405Z,100255.59
2022-12-16T02:46:35.368Z,100260.00
2022-12-16T02:49:29.132Z,100269.28
2022-12-16T02:51:59.377Z,100263.97
2022-12-16T02:54:27.382Z,100265.91
2022-12-16T02:56:57.003Z,100275.19
2022-12-16T02:59:54.340Z,100271.44
2022-12-16T03:02:54.948Z,100280.66
2022-12-16T03:05:48.173Z,100273.69
2022-12-16T03:08:25.025Z,100271.19
2022-12-16T03:10:56.853Z,100278.03
2022-12-16T03:13:23.819Z,100284.16
2022-12-16T03:15:53.927Z,100278.81
2022-12-16T03:18:22.022Z,100278.81
2022-12-16T03:21:00.464Z,100276.53
2022-12-16T03:23:40.923Z,100283.25
2022-12-16T03:26:15.884Z,100278.09
2022-12-16T03:28:51.687Z,100272.63
2022-12-16T03:31:51.306Z,100270.22
2022-12-16T03:34:33.179Z,100284.97
2022-12-16T03:37:04.220Z,100278.94
2022-12-16T03:39:39.931Z,100280.22
2022-12-16T03:42:07.736Z,100285.09
2022-12-16T03:44:35.592Z,100286.34
2022-12-16T03:47:04.999Z,100288.44
2022-12-16T03:49:31.706Z,100299.41
2022-12-16T03:51:58.357Z,100291.91
2022-12-16T03:54:25.769Z,100296.16
2022-12-16T03:56:52.467Z,100299.69
2022-12-16T03:59:19.223Z,100295.13
2022-12-16T04:01:46.096Z,100299.69
2022-12-16T04:04:12.956Z,100307.38
2022-12-16T04:06:39.592Z,100308.50
2022-12-16T04:09:06.296Z,100306.94
2022-12-16T04:11:51.567Z,100312.28
2022-12-16T04:14:36.966Z,100315.53
2022-12-16T04:17:22.566Z,100313.97
2022-12-16T04:20:08.797Z,100320.25
2022-12-16T04:22:59.017Z,100323.38
2022-12-16T04:25:32.566Z,100320.53
2022-12-16T04:27:59.215Z,100324.81
2022-12-16T04:30:27.928Z,100321.75
2022-12-16T04:33:19.574Z,100313.72
2022-12-16T04:36:04.878Z,100324.50
2022-12-16T04:38:50.651Z,100324.72
2022-12-16T04:41:35.777Z,100330.00
2022-12-16T04:44:22.048Z,100337.09
2022-12-16T04:47:07.286Z,100333.78
2022-12-16T04:49:52.592Z,100334.47
2022-12-16T04:52:38.399Z,100338.72
2022-12-16T04:55:25.186Z,100346.56
2022-12-16T04:58:12.701Z,100349.59
2022-12-16T05:00:58.524Z,100343.31
2022-12-16T05:03:44.874Z,100350.03
2022-12-16T05:06:30.698Z,100350.22
2022-12-16T05:09:15.788Z,100348.91
2022-12-16T05:12:01.592Z,100349.78
2022-12-16T05:14:46.818Z,100359.59
2022-12-16T05:17:33.886Z,100347.91
2022-12-16T05:20:19.686Z,100350.97
2022-12-16T05:23:04.840Z,100346.84
2022-12-16T05:25:50.676Z,100347.97
2022-12-16T05:28:37.621Z,100356.91
2022-12-16T05:31:23.382Z,100361.66
2022-12-16T05:34:08.647Z,100372.66
2022-12-16T05:36:53.879Z,100371.16
2022-12-16T05:39:39.240Z,100379.44
2022-12-16T05:42:24.751Z,100381.22
2022-12-16T05:45:10.073Z,100375.22
2022-12-16T05:47:55.300Z,100380.50
2022-12-16T05:50:40.464Z,100385.09
2022-12-16T05:53:25.801Z,100382.97
2022-12-16T05:56:11.120Z,100377.56
2022-12-16T05:58:56.180Z,100390.69
2022-12-16T06:01:41.611Z,100392.13
2022-12-16T06:04:26.789Z,100392.44
2022-12-16T06:07:11.999Z,100407.28
2022-12-16T06:09:57.188Z,100397.22
2022-12-16T06:12:43.001Z,100400.06
2022-12-16T06:15:28.775Z,100412.38
2022-12-16T06:18:14.408Z,100416.50
2022-12-16T06:21:00.166Z,100426.00
2022-12-16T06:23:45.374Z,100423.72
2022-12-16T06:26:30.650Z,100429.88
2022-12-16T06:29:15.889Z,100429.91
2022-12-16T06:32:01.115Z,100435.03
2022-12-16T06:34:57.101Z,100443.63
2022-12-16T06:37:42.125Z,100446.47
2022-12-16T06:40:28.527Z,100453.75
2022-12-16T06:43:13.736Z,100457.47
2022-12-16T06:45:59.134Z,100458.16
2022-12-16T06:48:44.337Z,100463.13
2022-12-16T06:51:29.574Z,100468.72
2022-12-16T06:54:14.781Z,100472.66
2022-12-16T06:57:00.072Z,100476.69
2022-12-16T06:59:45.500Z,100478.09
2022-12-16T07:02:32.766Z,100475.31
2022-12-16T07:05:18.141Z,100487.50
2022-12-16T07:08:08.488Z,100487.50
2022-12-16T07:10:55.283Z,100492.19
2022-12-16T07:13:42.135Z,100493.59
2022-12-16T07:16:27.388Z,100504.59
2022-12-16T07:19:12.530Z,100506.44
2022-12-16T07:21:57.704Z,100505.47
2022-12-16T07:24:43.049Z,100517.31
2022-12-16T07:27:28.192Z,100522.53
2022-12-16T07:30:13.429Z,100531.94
2022-12-16T07:32:58.617Z,100531.81
2022-12-16T07:35:43.938Z,100544.25
2022-12-16T07:38:29.118Z,100544.41
2022-12-16T07:41:14.507Z,100552.66
2022-12-16T07:43:59.978Z,100555.31
2022-12-16T07:46:45.348Z,100560.72
2022-12-16T07:49:30.852Z,100557.66
2022-12-16T07:52:16.090Z,100564.44
2022-12-16T07:55:08.826Z,100575.91
2022-12-16T07:57:54.193Z,100575.78
2022-12-16T08:00:39.347Z,100583.56
2022-12-16T08:03:24.612Z,100583.59
2022-12-16T08:06:09.875Z,100594.63
2022-12-16T08:08:54.889Z,100603.69
2022-12-16T08:11:40.097Z,100606.41
2022-12-16T08:14:25.315Z,100607.88
2022-12-16T08:17:10.617Z,100613.84
2022-12-16T08:19:55.994Z,100618.56
2022-12-16T08:22:41.032Z,100618.81
2022-12-16T08:25:26.282Z,100621.41
2022-12-16T08:28:14.990Z,100638.94
2022-12-16T08:31:00.356Z,100641.59
2022-12-16T08:33:45.747Z,100648.81
2022-12-16T08:36:30.923Z,100642.50
2022-12-16T08:39:16.207Z,100649.16
2022-12-16T08:42:01.390Z,100660.31
2022-12-16T08:44:46.712Z,100671.59
2022-12-16T08:47:32.299Z,100670.59
2022-12-16T08:50:17.457Z,100675.03
2022-12-16T08:53:03.235Z,100681.22
2022-12-16T08:55:48.518Z,100687.69
2022-12-16T08:58:34.323Z,100692.06
2022-12-16T09:01:19.623Z,100698.91
2022-12-16T09:04:04.963Z,100706.88
2022-12-16T09:06:50.418Z,100702.88
2022-12-16T09:09:35.564Z,100708.66
2022-12-16T09:12:21.184Z,100728.88
2022-12-16T09:15:06.426Z,100727.66
2022-12-16T09:17:51.957Z,100742.19
2022-12-16T09:20:38.240Z,100739.44
2022-12-16T09:23:23.853Z,100745.13
2022-12-16T09:26:09.141Z,100749.44
2022-12-16T09:28:54.429Z,100751.63
2022-12-16T09:31:39.949Z,100752.06
2022-12-16T09:34:25.327Z,100771.13
2022-12-16T09:37:10.492Z,100768.16
2022-12-16T09:39:55.646Z,100777.91
2022-12-16T09:43:12.247Z,100778.94
2022-12-16T09:46:12.671Z,100787.66
2022-12-16T09:49:14.892Z,100796.25
2022-12-16T09:52:01.627Z,100808.31
2022-12-16T09:54:50.318Z,100814.53
2022-12-16T09:57:38.295Z,100824.22
2022-12-16T10:00:37.681Z,100836.19
2022-12-16T10:03:32.267Z,100841.59
2022-12-16T10:06:24.923Z,100848.50
2022-12-16T10:09:37.480Z,100859.97
2022-12-16T10:12:34.901Z,100867.34
2022-12-16T10:15:45.291Z,100868.88
2022-12-16T10:19:01.069Z,100883.19
2022-12-16T10:21:53.413Z,100888.22
2022-12-16T10:24:44.647Z,100892.88
2022-12-16T10:27:35.552Z,100892.25
2022-12-16T10:30:22.041Z,100894.00
2022-12-16T10:33:10.342Z,100893.78
2022-12-16T10:36:03.123Z,100895.66
2022-12-16T10:39:02.227Z,100907.06
2022-12-16T10:41:52.980Z,100905.22
2022-12-16T10:45:07.398Z,100910.66
2022-12-16T10:47:52.658Z,100924.97
2022-12-16T10:50:38.730Z,100930.53
2022-12-16T10:53:33.724Z,100939.91
2022-12-16T10:56:40.870Z,100933.31
2022-12-16T10:59:28.052Z,100940.31
2022-12-16T11:02:22.569Z,100951.34
2022-12-16T11:05:08.282Z,100948.00
2022-12-16T11:08:02.745Z,100957.50
2022-12-16T11:10:53.467Z,100955.25
2022-12-16T11:13:55.004Z,100965.47
2022-12-16T11:16:47.571Z,100965.59
2022-12-16T11:19:41.401Z,100968.53
2022-12-16T11:22:35.314Z,100976.06
2022-12-16T11:25:25.015Z,100985.00
2022-12-16T11:28:20.364Z,100999.59
2022-12-16T11:31:14.278Z,101006.25
2022-12-16T11:34:01.055Z,101009.97
2022-12-16T11:36:46.658Z,101018.28
2022-12-16T11:39:38.540Z,101023.97
2022-12-16T11:42:25.202Z,101048.91
2022-12-16T11:45:20.487Z,101054.00
2022-12-16T11:48:19.959Z,101077.84
2022-12-16T11:51:15.456Z,101095.63
2022-12-16T11:54:26.109Z,101112.88
2022-12-16T11:57:11.275Z,101112.06
2022-12-16T12:00:00.504Z,101119.78
2022-12-16T12:03:09.135Z,101125.97
2022-12-16T12:06:07.852Z,101123.47
2022-12-16T12:08:57.546Z,101117.31
2022-12-16T12:12:01.654Z,101120.72
2022-12-16T12:15:02.089Z,101120.25
2022-12-16T12:18:12.281Z,101124.59
2022-12-16T12:21:12.890Z,101137.25
2022-12-16T12:24:20.465Z,101151.63
2022-12-16T12:27:18.790Z,101150.50
2022-12-16T12:30:16.845Z,101170.41
2022-12-16T12:33:16.446Z,101185.06
2022-12-16T12:36:23.808Z,101168.00
2022-12-16T12:39:28.030Z,101170.63
2022-12-16T12:42:22.583Z,101164.88
2022-12-16T12:45:13.297Z,101169.09
2022-12-16T12:48:19.626Z,101178.06
2022-12-16T12:51:32.596Z,101189.75
2022-12-16T12:54:39.638Z,101199.72
2022-12-16T12:57:27.699Z,101210.44
2022-12-16T13:00:22.172Z,101208.28
2022-12-16T13:03:22.754Z,101207.56
2022-12-16T13:06:09.179Z,101227.66
2022-12-16T13:09:02.573Z,101230.22
2022-12-16T13:11:47.755Z,101241.22
2022-12-16T13:14:51.529Z,101248.72
2022-12-16T13:17:39.131Z,101254.91
2022-12-16T13:20:50.679Z,101258.50
2022-12-16T13:23:45.935Z,101267.66
2022-12-16T13:26:37.137Z,101272.06
2022-12-16T13:29:43.929Z,101276.00
2022-12-16T13:32:29.103Z,101289.44
2022-12-16T13:35:28.845Z,101292.22
2022-12-16T13:38:37.296Z,101295.09
2022-12-16T13:41:25.524Z,101300.53
2022-12-16T13:44:16.038Z,101312.41
2022-12-16T13:47:09.913Z,101307.16
2022-12-16T13:49:55.299Z,101308.94
2022-12-16T13:53:16.531Z,101322.84
2022-12-16T13:56:13.753Z,101329.19
2022-12-16T13:59:07.126Z,101324.78
2022-12-16T14:02:01.627Z,101329.38
2022-12-16T14:04:51.306Z,101341.91
2022-12-16T14:07:39.313Z,101334.94
2022-12-16T14:10:38.854Z,101338.53
2022-12-16T14:13:33.857Z,101345.91
2022-12-16T14:16:38.738Z,101340.38
2022-12-16T14:19:47.631Z,101325.91
2022-12-16T14:22:59.072Z,101337.38
2022-12-16T14:25:44.436Z,101331.19
2022-12-16T14:28:51.148Z,101332.78
2022-12-16T14:31:52.803Z,101322.75
2022-12-16T14:34:47.207Z,101320.91
2022-12-16T14:37:41.614Z,101319.72
2022-12-16T14:40:41.990Z,101323.16
2022-12-16T14:43:44.445Z,101323.06
2022-12-16T14:46:55.951Z,101317.31
2022-12-16T14:49:46.873Z,101320.81
2022-12-16T14:52:46.247Z,101329.03
2022-12-16T14:55:37.521Z,101328.28
2022-12-16T14:58:34.194Z,101333.13
2022-12-16T15:01:23.875Z,101334.94
2022-12-16T15:04:09.331Z,101342.28
2022-12-16T15:07:01.736Z,101348.66
2022-12-16T15:09:52.638Z,101357.44
2022-12-16T15:12:44.058Z,101361.44
2022-12-16T15:15:40.909Z,101351.81
2022-12-16T15:18:36.678Z,101353.78
2022-12-16T15:21:22.406Z,101362.00
2022-12-16T15:24:07.639Z,101357.72
2022-12-16T15:26:53.938Z,101360.59
2022-12-16T15:29:59.968Z,101376.22
2022-12-16T15:32:52.938Z,101372.94
2022-12-16T15:35:44.299Z,101371.16
2022-12-16T15:38:42.063Z,101370.28
2022-12-16T15:41:41.292Z,101375.63
2022-12-16T15:44:38.322Z,101374.19
2022-12-16T15:47:25.749Z,101375.09
2022-12-16T15:50:11.001Z,101372.38
2022-12-16T15:53:03.302Z,101382.53
2022-12-16T15:55:49.970Z,101382.53
2022-12-16T15:58:44.977Z,101392.41
2022-12-16T16:01:32.748Z,101392.59
2022-12-16T16:04:18.427Z,101399.91
2022-12-16T16:07:11.559Z,101395.66
2022-12-16T16:09:58.335Z,101406.50
2022-12-16T16:12:44.499Z,101422.03
2022-12-16T16:15:31.899Z,101434.84
2022-12-16T16:18:20.314Z,101433.97
2022-12-16T16:21:05.819Z,101441.06
2022-12-16T16:23:51.096Z,101427.78
2022-12-16T16:26:41.083Z,101434.09
2022-12-16T16:29:28.636Z,101440.44
2022-12-16T16:32:13.687Z,101447.56
2022-12-16T16:34:58.991Z,101453.00
2022-12-16T16:37:44.146Z,101463.75
2022-12-16T16:40:55.992Z,101472.97
2022-12-16T16:43:42.568Z,101481.03
2022-12-16T16:46:40.179Z,101465.78
2022-12-16T16:49:30.324Z,101471.00
2022-12-16T16:52:15.715Z,101466.41
2022-12-16T16:55:00.942Z,101449.56
2022-12-16T16:57:48.704Z,101462.97
2022-12-16T17:00:34.432Z,101459.56
2022-12-16T17:03:19.755Z,101477.78
2022-12-16T17:06:05.278Z,101485.81
2022-12-16T17:08:50.588Z,101487.47
2022-12-16T17:11:38.825Z,101488.41
2022-12-16T17:14:24.112Z,101496.50
2022-12-16T17:17:09.649Z,101498.28
2022-12-16T17:19:54.894Z,101492.91
2022-12-16T17:22:40.182Z,101497.34
2022-12-16T17:25:25.918Z,101496.63
2022-12-16T17:28:11.407Z,101502.75
2022-12-16T17:30:56.674Z,101503.53
2022-12-16T17:33:41.725Z,101504.28
2022-12-16T17:36:34.629Z,101489.06
2022-12-16T17:39:20.514Z,101488.13
2022-12-16T17:42:05.736Z,101491.91
2022-12-16T17:44:51.066Z,101492.78
2022-12-16T17:47:36.761Z,101497.97
2022-12-16T17:50:23.804Z,101471.19
2022-12-16T17:53:13.625Z,101468.38
2022-12-16T17:55:59.399Z,101467.38
2022-12-16T17:58:52.743Z,101463.78
2022-12-16T18:01:39.024Z,101459.38
2022-12-16T18:04:24.831Z,101468.50
2022-12-16T18:07:10.151Z,101484.94
2022-12-16T18:09:55.388Z,101497.50
2022-12-16T18:12:41.173Z,101507.25
2022-12-16T18:15:27.482Z,101509.09
2022-12-16T18:18:12.725Z,101527.72
2022-12-16T18:20:57.881Z,101533.94
2022-12-16T18:23:42.982Z,101532.09
2022-12-16T18:26:28.870Z,101538.22
2022-12-16T18:29:14.529Z,101517.78
2022-12-16T18:32:02.904Z,101527.53
2022-12-16T18:34:48.426Z,101519.59
2022-12-16T18:37:33.636Z,101524.09
2022-12-16T18:40:18.843Z,101529.44
2022-12-16T18:43:04.036Z,101524.16
2022-12-16T18:45:49.577Z,101525.94
2022-12-16T18:48:34.996Z,101528.59
2022-12-16T18:51:20.616Z,101529.53
2022-12-16T18:54:08.484Z,101527.78
2022-12-16T18:56:53.719Z,101533.16
2022-12-16T18:59:38.839Z,101535.75
2022-12-16T19:02:24.165Z,101539.31
2022-12-16T19:05:09.450Z,101561.63
2022-12-16T19:07:54.622Z,101580.22
2022-12-16T19:10:40.449Z,101595.22
2022-12-16T19:13:25.808Z,101584.66
2022-12-16T19:16:15.462Z,101589.06
2022-12-16T19:19:01.286Z,101594.31
2022-12-16T19:24:54.962Z,101625.16
2022-12-16T19:27:42.149Z,101619.84
2022-12-16T19:30:28.553Z,101626.06
2022-12-16T19:33:13.993Z,101620.81
2022-12-16T19:35:59.483Z,101621.69
2022-12-16T19:38:44.623Z,101624.34
2022-12-16T19:41:33.868Z,101627.00
2022-12-16T19:44:23.377Z,101626.09
2022-12-16T19:50:14.089Z,101636.66
2022-12-16T19:52:59.331Z,101643.66
2022-12-16T19:55:44.350Z,101645.41
2022-12-16T19:58:29.538Z,101642.75
2022-12-16T20:01:14.891Z,101658.47
2022-12-16T20:04:00.122Z,101667.28
2022-12-16T20:06:45.439Z,101675.91
2022-12-16T20:09:30.668Z,101677.63
2022-12-16T20:12:15.869Z,101678.69
2022-12-16T20:15:01.250Z,101676.97
2022-12-16T20:17:46.578Z,101677.84
2022-12-16T20:20:31.859Z,101671.59
2022-12-16T20:23:17.110Z,101677.84
2022-12-16T20:26:02.242Z,101676.03
2022-12-16T20:28:57.755Z,101697.00
2022-12-16T20:31:42.940Z,101705.75
2022-12-16T20:34:28.158Z,101706.69
2022-12-16T20:37:13.366Z,101725.84
2022-12-16T20:39:58.552Z,101731.84
2022-12-16T20:42:44.887Z,101725.09
2022-12-16T20:45:34.985Z,101726.00
2022-12-16T20:48:20.686Z,101720.72
2022-12-16T20:51:14.178Z,101729.56
2022-12-16T20:53:59.992Z,101743.53
2022-12-16T20:56:45.249Z,101746.13
2022-12-16T20:59:30.542Z,101752.28
2022-12-16T21:02:25.883Z,101759.38
2022-12-16T21:05:13.519Z,101764.66
2022-12-16T21:07:58.733Z,101768.19
2022-12-16T21:10:44.167Z,101775.19
2022-12-16T21:13:32.624Z,101769.09
2022-12-16T21:16:19.342Z,101776.19
2022-12-16T21:19:04.506Z,101765.69
2022-12-16T21:21:49.760Z,101768.41
2022-12-16T21:24:35.023Z,101763.19
2022-12-16T21:27:20.264Z,101779.03
2022-12-16T21:30:05.592Z,101777.44
2022-12-16T21:32:50.949Z,101768.75
2022-12-16T21:35:39.088Z,101770.63
2022-12-16T21:38:31.419Z,101778.56
2022-12-16T21:41:17.014Z,101775.97
2022-12-16T21:44:02.107Z,101778.72
2022-12-16T21:46:47.528Z,101781.41
2022-12-16T21:49:34.794Z,101779.66
2022-12-16T21:52:20.041Z,101787.56
2022-12-16T21:55:05.467Z,101777.09
2022-12-16T21:57:51.174Z,101766.53
2022-12-16T22:00:38.698Z,101771.94
2022-12-16T22:03:24.015Z,101764.91
2022-12-16T22:06:09.328Z,101774.59
2022-12-16T22:08:56.239Z,101771.03
2022-12-16T22:11:41.852Z,101768.38
2022-12-16T22:14:27.074Z,101773.66
2022-12-16T22:17:12.520Z,101770.09
2022-12-16T22:19:57.931Z,101770.09
2022-12-16T22:22:43.328Z,101769.19
2022-12-16T22:25:28.949Z,101773.63
2022-12-16T22:28:14.115Z,101777.97
2022-12-16T22:30:59.513Z,101781.47
2022-12-16T22:33:44.557Z,101789.41
2022-12-16T22:36:31.898Z,101789.34
2022-12-16T22:39:17.313Z,101786.53
2022-12-16T22:42:02.689Z,101805.94
2022-12-16T22:44:48.026Z,101803.19
2022-12-16T22:47:33.337Z,101791.84
2022-12-16T22:50:18.562Z,101806.50
2022-12-16T22:53:03.927Z,101805.81
2022-12-16T22:55:49.286Z,101816.88
2022-12-16T22:58:34.604Z,101816.22
2022-12-16T23:01:19.805Z,101827.44
2022-12-16T23:04:05.071Z,101830.97
2022-12-16T23:06:50.161Z,101827.63
2022-12-16T23:09:35.435Z,101829.31
2022-12-16T23:12:20.764Z,101828.44
2022-12-16T23:15:06.206Z,101836.28
2022-12-16T23:17:51.406Z,101837.16
2022-12-16T23:20:36.987Z,101835.13
2022-12-16T23:23:22.386Z,101842.81
2022-12-16T23:26:15.724Z,101849.88
2022-12-16T23:29:00.946Z,101851.75
2022-12-16T23:31:46.413Z,101855.97
2022-12-16T23:34:31.802Z,101851.56
2022-12-16T23:37:16.993Z,101860.03
2022-12-16T23:40:02.281Z,101858.56
2022-12-16T23:42:47.487Z,101866.03
2022-12-16T23:45:32.749Z,101876.44
2022-12-16T23:48:27.156Z,101884.34
2022-12-16T23:51:12.989Z,101891.50
2022-12-16T23:53:58.566Z,101911.56
2022-12-16T23:56:44.234Z,101923.88
2022-12-16T23:59:29.423Z,101934.06
